Sepang, Malaysia
Current Conditions -  °F | °C
As of 2:00 PM on Thursday 23 Oct 2014 (Local Time) from WMKK Reporting Station
Broken Clouds Broken Clouds  
Wind Chill: 88°   Ceiling: 28000
Heat Index: 98°   Visibility: 6mi
Dew Point: 75°   Wind: 6mph
Humidity: 66%   Direction: 250°WSW
Pressure: 29.83"   Gusts: NA
Location:  2.69°N, 101.76°E
Report Text: WMKK 230600Z 25005KT 9999 FEW017CB SCT018 BKN280 31/24 Q1010 NOSIG
Loading
Personal Weather Stations






























Interactive Weather Map
Tropical Storm Tracking
New forecast layout! Learn more

10-Day Weather Forecast

Advertisements
Track Severe Weather on mobile